Time;durP1;ratioP1;P1;durP2;ratioP2;P2;SDS_P1;SDS_P2;PMS_P1;PMS_P2;Temp;Humidity;BMP_temperature;BMP_pressure;BME280_temperature;BME280_humidity;BME280_pressure;Samples;Min_cycle;Max_cycle;Signal;HPM_P1;HPM_P2
2023/06/13 00:00:44;;;;;;;8.57;6.80;;;20.50;59.10;;;;;;5036086;28;20541;-71
2023/06/13 00:03:13;;;;;;;8.57;7.67;;;20.50;59.30;;;;;;5036363;28;20514;-71
2023/06/13 00:05:45;;;;;;;8.03;6.20;;;20.40;59.20;;;;;;5035909;28;20471;-71
2023/06/13 00:08:17;;;;;;;9.13;7.13;;;20.40;59.30;;;;;;5036156;28;20455;-71
2023/06/13 00:10:46;;;;;;;8.63;7.37;;;20.30;59.20;;;;;;5036474;28;20469;-70
2023/06/13 00:13:15;;;;;;;8.97;7.70;;;20.30;59.30;;;;;;5035981;28;20442;-71
2023/06/13 00:15:50;;;;;;;10.90;7.60;;;20.30;60.00;;;;;;5035717;28;20439;-70
2023/06/13 00:18:19;;;;;;;9.53;6.80;;;20.20;59.40;;;;;;5036282;28;20461;-70
2023/06/13 00:20:48;;;;;;;9.17;7.53;;;20.20;59.50;;;;;;5035846;28;20446;-71
2023/06/13 00:23:17;;;;;;;8.53;7.57;;;20.20;59.50;;;;;;5035651;28;21004;-70
2023/06/13 00:25:46;;;;;;;11.67;7.60;;;20.10;59.60;;;;;;5035545;28;20466;-71
2023/06/13 00:28:14;;;;;;;12.10;7.30;;;20.10;59.60;;;;;;5035496;28;20466;-71
2023/06/13 00:30:43;;;;;;;9.30;7.40;;;20.00;59.60;;;;;;5035797;28;20447;-71
2023/06/13 00:33:16;;;;;;;9.80;7.90;;;20.00;59.70;;;;;;5034333;28;20873;-70
2023/06/13 00:35:46;;;;;;;9.30;7.60;;;20.00;59.80;;;;;;5035735;28;20429;-71
2023/06/13 00:38:20;;;;;;;7.97;6.90;;;19.90;59.80;;;;;;5035351;28;20497;-71
2023/06/13 00:40:50;;;;;;;9.20;7.70;;;19.90;59.90;;;;;;5034235;28;20435;-71
2023/06/13 00:43:18;;;;;;;9.30;8.10;;;19.90;60.00;;;;;;5035349;28;20481;-71
2023/06/13 00:45:46;;;;;;;8.93;7.33;;;19.80;60.10;;;;;;5035187;28;20540;-71
2023/06/13 00:48:15;;;;;;;9.37;8.37;;;19.80;60.20;;;;;;5034190;28;20472;-70
2023/06/13 00:50:44;;;;;;;12.17;8.80;;;19.80;60.40;;;;;;5033930;28;21028;-71
2023/06/13 00:53:16;;;;;;;9.70;8.13;;;19.70;60.50;;;;;;5035375;28;20441;-71
2023/06/13 00:55:47;;;;;;;8.83;7.87;;;19.70;60.50;;;;;;5035404;28;20423;-71
2023/06/13 00:58:17;;;;;;;9.60;8.43;;;19.60;60.60;;;;;;5033703;28;21007;-71
2023/06/13 01:00:45;;;;;;;8.47;7.50;;;19.60;60.70;;;;;;5035325;28;20462;-71
2023/06/13 01:03:15;;;;;;;9.13;8.00;;;19.60;60.80;;;;;;5033927;28;20538;-71
2023/06/13 01:05:45;;;;;;;8.90;8.00;;;19.50;60.80;;;;;;5033566;28;20458;-71
2023/06/13 01:08:16;;;;;;;9.30;8.23;;;19.50;61.00;;;;;;5035129;28;20538;-71
2023/06/13 01:10:52;;;;;;;9.20;8.20;;;19.40;60.90;;;;;;5035038;28;20791;-71
2023/06/13 01:13:28;;;;;;;11.50;8.40;;;19.40;61.00;;;;;;5033585;28;20439;-70
2023/06/13 01:16:03;;;;;;;10.27;7.60;;;19.30;61.00;;;;;;5033445;28;20435;-71
2023/06/13 01:18:35;;;;;;;9.33;6.87;;;19.30;61.10;;;;;;5034597;28;20462;-71
2023/06/13 01:21:06;;;;;;;8.47;7.57;;;19.30;61.20;;;;;;5034696;28;20463;-71
2023/06/13 01:23:40;;;;;;;12.27;8.77;;;19.20;61.30;;;;;;5033333;28;20828;-70
2023/06/13 01:26:14;;;;;;;9.40;7.53;;;19.20;62.00;;;;;;5034543;28;20458;-70
2023/06/13 01:28:51;;;;;;;9.90;8.20;;;19.10;61.30;;;;;;5034453;28;20501;-71
2023/06/13 01:31:23;;;;;;;10.20;7.27;;;19.10;61.30;;;;;;5033970;28;20924;-71
2023/06/13 01:33:52;;;;;;;8.17;7.27;;;19.10;61.40;;;;;;5036252;28;20431;-71
2023/06/13 01:36:21;;;;;;;9.50;7.50;;;19.00;61.30;;;;;;5035062;28;20943;-71
2023/06/13 01:38:49;;;;;;;9.87;7.53;;;19.00;61.50;;;;;;5032920;28;20975;-71
2023/06/13 01:41:17;;;;;;;7.90;6.90;;;19.00;61.60;;;;;;5034440;28;20535;-71
2023/06/13 01:43:47;;;;;;;9.27;6.90;;;18.90;61.60;;;;;;5032121;28;21023;-71
2023/06/13 01:46:26;;;;;;;9.47;6.83;;;18.90;61.60;;;;;;5033469;28;20521;-71
2023/06/13 01:49:07;;;;;;;7.90;6.60;;;18.80;61.60;;;;;;5033291;28;20451;-71
2023/06/13 01:51:42;;;;;;;8.00;7.20;;;18.80;61.60;;;;;;5032069;28;20811;-71
2023/06/13 01:54:12;;;;;;;8.60;7.10;;;18.80;61.70;;;;;;5032689;28;20473;-71
2023/06/13 01:56:43;;;;;;;7.60;6.60;;;18.70;61.60;;;;;;5032048;28;20427;-70
2023/06/13 01:59:16;;;;;;;8.83;6.97;;;18.60;61.60;;;;;;5031909;28;20470;-71
2023/06/13 02:01:45;;;;;;;9.20;6.90;;;18.60;61.60;;;;;;5032043;28;20542;-70
2023/06/13 02:04:13;;;;;;;8.70;7.50;;;18.60;61.60;;;;;;5031905;28;20530;-71
2023/06/13 02:06:41;;;;;;;7.73;6.93;;;18.50;61.50;;;;;;5031641;28;20925;-71
2023/06/13 02:09:11;;;;;;;8.90;7.07;;;18.50;61.60;;;;;;5031824;28;20874;-70
2023/06/13 02:11:39;;;;;;;7.70;6.80;;;18.50;61.60;;;;;;5032999;28;20435;-71
2023/06/13 02:14:07;;;;;;;9.80;7.43;;;18.40;61.60;;;;;;5031740;28;20493;-71
2023/06/13 02:16:39;;;;;;;10.07;7.90;;;18.40;61.70;;;;;;5031692;28;20450;-71
2023/06/13 02:19:10;;;;;;;9.27;7.50;;;18.40;61.80;;;;;;5032865;28;20447;-71
2023/06/13 02:21:45;;;;;;;8.73;6.50;;;18.30;61.70;;;;;;5039226;28;20483;-71
2023/06/13 02:24:14;;;;;;;8.60;7.00;;;18.30;61.80;;;;;;5037122;28;20415;-71
2023/06/13 02:26:44;;;;;;;12.83;7.73;;;18.20;61.70;;;;;;5034574;28;20570;-71
2023/06/13 02:29:12;;;;;;;8.75;7.15;;;18.20;61.90;;;;;;4996949;28;1118474;-71
2023/06/13 02:31:41;;;;;;;8.73;6.73;;;18.20;62.10;;;;;;5034771;28;20216;-71
2023/06/13 02:34:10;;;;;;;9.30;7.40;;;18.10;62.10;;;;;;5034452;28;20439;-71
2023/06/13 02:36:38;;;;;;;9.17;7.10;;;18.10;62.20;;;;;;5034378;28;20525;-71
2023/06/13 02:39:07;;;;;;;8.47;6.60;;;18.10;62.30;;;;;;5034138;28;20947;-71
2023/06/13 02:41:35;;;;;;;7.27;6.00;;;18.00;62.40;;;;;;5034540;28;20434;-71
2023/06/13 02:44:04;;;;;;;8.30;7.00;;;18.00;62.50;;;;;;5032753;28;20967;-71
2023/06/13 02:46:32;;;;;;;9.50;6.53;;;17.90;62.50;;;;;;5033554;28;20474;-71
2023/06/13 02:49:02;;;;;;;9.57;6.87;;;17.90;62.60;;;;;;5032363;28;20490;-71
2023/06/13 02:51:30;;;;;;;8.50;7.23;;;17.80;62.60;;;;;;5032614;28;20501;-71
2023/06/13 02:53:58;;;;;;;10.57;7.10;;;17.80;63.40;;;;;;5033408;28;20944;-71
2023/06/13 02:56:28;;;;;;;10.03;7.50;;;17.70;62.80;;;;;;5032195;28;20526;-71
2023/06/13 02:58:56;;;;;;;10.17;7.00;;;17.70;63.50;;;;;;5033522;28;20522;-71
2023/06/13 03:01:26;;;;;;;8.33;6.43;;;17.60;62.90;;;;;;5035474;28;20505;-71
2023/06/13 03:03:56;;;;;;;8.83;7.23;;;17.60;63.10;;;;;;5036067;28;20459;-71
2023/06/13 03:06:26;;;;;;;8.60;7.20;;;17.50;63.20;;;;;;5035790;28;20983;-71
2023/06/13 03:08:58;;;;;;;9.30;6.73;;;17.50;63.40;;;;;;5036358;28;20447;-71
2023/06/13 03:11:28;;;;;;;8.30;7.10;;;17.40;63.40;;;;;;5036780;28;20446;-71
2023/06/13 03:13:56;;;;;;;9.70;6.77;;;17.40;64.10;;;;;;5035980;28;20458;-71
2023/06/13 03:16:27;;;;;;;10.73;7.33;;;17.40;63.70;;;;;;5037611;28;20445;-71
2023/06/13 03:18:57;;;;;;;9.10;7.10;;;17.30;63.70;;;;;;5036208;28;20800;-71
2023/06/13 03:21:27;;;;;;;8.03;7.10;;;17.30;63.90;;;;;;5035710;28;20491;-71
2023/06/13 03:23:55;;;;;;;9.97;8.90;;;17.20;63.90;;;;;;5036002;28;20442;-71
2023/06/13 03:26:24;;;;;;;12.07;7.87;;;17.20;64.00;;;;;;5037534;28;20466;-70
2023/06/13 03:28:53;;;;;;;12.60;6.93;;;17.10;64.00;;;;;;5035530;28;20820;-71
2023/06/13 03:31:21;;;;;;;10.00;7.17;;;17.10;64.60;;;;;;5035719;28;20446;-70
2023/06/13 03:33:50;;;;;;;8.17;7.33;;;17.10;64.00;;;;;;5035665;28;20450;-70
2023/06/13 03:36:19;;;;;;;7.63;6.30;;;17.00;63.90;;;;;;5035643;28;20443;-70
2023/06/13 03:38:49;;;;;;;8.83;6.30;;;17.00;63.90;;;;;;5037291;28;20516;-70
2023/06/13 03:41:17;;;;;;;9.60;6.40;;;17.00;64.00;;;;;;5036960;28;20438;-70
2023/06/13 03:43:45;;;;;;;12.47;7.00;;;17.00;64.00;;;;;;5036580;28;20469;-70
2023/06/13 03:46:13;;;;;;;9.70;7.17;;;17.00;64.10;;;;;;5035256;28;21022;-70
2023/06/13 03:48:43;;;;;;;10.17;6.90;;;16.90;64.10;;;;;;5036767;28;20470;-70
2023/06/13 03:51:11;;;;;;;8.60;6.80;;;16.90;64.20;;;;;;5035268;28;20442;-70
2023/06/13 03:53:39;;;;;;;7.73;6.33;;;16.90;64.30;;;;;;5035283;28;20418;-70
2023/06/13 03:56:10;;;;;;;8.33;6.00;;;16.90;64.40;;;;;;5035099;28;20847;-70
2023/06/13 03:58:38;;;;;;;8.70;6.60;;;16.90;64.70;;;;;;5035491;28;20999;-71
2023/06/13 04:01:08;;;;;;;8.67;6.97;;;16.90;64.90;;;;;;5034961;28;20443;-70
2023/06/13 04:03:39;;;;;;;11.30;7.13;;;16.90;64.90;;;;;;5035055;28;20457;-70
2023/06/13 04:06:08;;;;;;;9.53;7.20;;;16.90;65.00;;;;;;5034979;28;20413;-71
2023/06/13 04:08:36;;;;;;;8.47;6.70;;;16.90;65.20;;;;;;5036116;28;20999;-71
2023/06/13 04:11:06;;;;;;;8.93;7.00;;;16.80;65.10;;;;;;5034662;28;20451;-70
2023/06/13 04:13:35;;;;;;;9.67;7.07;;;16.80;65.20;;;;;;5036122;28;20433;-70
2023/06/13 04:16:04;;;;;;;11.27;8.30;;;16.80;65.40;;;;;;5034795;28;20453;-70
2023/06/13 04:18:36;;;;;;;9.33;7.20;;;16.80;65.50;;;;;;5034524;28;20459;-71
2023/06/13 04:21:05;;;;;;;9.93;7.50;;;16.80;65.50;;;;;;5034705;28;20443;-71
2023/06/13 04:23:33;;;;;;;8.53;6.93;;;16.80;65.50;;;;;;5034623;28;20482;-70
2023/06/13 04:26:03;;;;;;;8.30;7.23;;;16.80;65.60;;;;;;5034432;28;20451;-71
2023/06/13 04:28:32;;;;;;;12.30;8.03;;;16.80;65.70;;;;;;5036120;28;20520;-71
2023/06/13 04:31:03;;;;;;;10.23;7.10;;;16.80;65.80;;;;;;5035415;28;20452;-70
2023/06/13 04:33:33;;;;;;;10.57;7.17;;;16.80;66.00;;;;;;5034181;28;20446;-70
2023/06/13 04:36:05;;;;;;;10.90;7.33;;;16.80;66.10;;;;;;5035415;28;20434;-70
2023/06/13 04:38:35;;;;;;;10.23;7.30;;;16.80;66.10;;;;;;5035339;28;20458;-70
2023/06/13 04:41:03;;;;;;;10.27;7.23;;;16.80;66.10;;;;;;5035225;28;20435;-70
2023/06/13 04:43:33;;;;;;;8.67;6.53;;;16.80;66.20;;;;;;5035798;28;20546;-71
2023/06/13 04:46:03;;;;;;;9.17;6.50;;;16.80;66.40;;;;;;5035506;28;20390;-71
2023/06/13 04:48:37;;;;;;;11.37;7.00;;;16.80;66.40;;;;;;5035696;28;20557;-70
2023/06/13 04:51:08;;;;;;;10.43;6.13;;;16.80;66.40;;;;;;5034110;28;20466;-70
2023/06/13 04:53:38;;;;;;;8.73;6.47;;;16.80;66.50;;;;;;5035694;28;20455;-70
2023/06/13 04:56:07;;;;;;;8.97;6.23;;;16.80;66.60;;;;;;5035174;28;20434;-70
2023/06/13 04:58:35;;;;;;;8.87;6.43;;;16.80;66.70;;;;;;5035242;28;20537;-70
2023/06/13 05:01:07;;;;;;;8.03;6.17;;;16.80;66.90;;;;;;5035284;28;21019;-70
2023/06/13 05:03:37;;;;;;;8.87;5.73;;;16.80;67.00;;;;;;5035663;28;20427;-70
2023/06/13 05:06:05;;;;;;;8.93;6.40;;;16.80;67.60;;;;;;5035400;28;20538;-70
2023/06/13 05:08:34;;;;;;;9.70;5.27;;;16.80;67.00;;;;;;5034824;28;20475;-71
2023/06/13 05:11:02;;;;;;;11.50;5.53;;;16.80;67.10;;;;;;5033503;28;20474;-71
2023/06/13 05:13:30;;;;;;;10.17;5.57;;;16.90;67.30;;;;;;5034692;28;20451;-70
2023/06/13 05:15:58;;;;;;;7.60;4.70;;;16.80;67.50;;;;;;5034957;28;20497;-70
2023/06/13 05:18:29;;;;;;;7.07;5.30;;;16.80;67.70;;;;;;5034571;28;20972;-70
2023/06/13 05:20:58;;;;;;;6.30;5.10;;;16.90;67.90;;;;;;5033222;28;20443;-70
2023/06/13 05:23:28;;;;;;;8.60;5.17;;;16.90;68.00;;;;;;5034008;28;20443;-70
2023/06/13 05:25:56;;;;;;;7.20;4.43;;;16.90;68.10;;;;;;5034363;28;20929;-70
2023/06/13 05:28:24;;;;;;;8.03;4.80;;;16.90;68.30;;;;;;5034538;28;20502;-71
2023/06/13 05:30:52;;;;;;;11.47;4.50;;;17.00;68.50;;;;;;5034461;28;20501;-70
2023/06/13 05:33:21;;;;;;;7.10;4.63;;;17.00;68.70;;;;;;5034659;28;20811;-71
2023/06/13 05:35:51;;;;;;;9.20;3.80;;;17.10;68.90;;;;;;5034216;28;20474;-70
2023/06/13 05:38:25;;;;;;;6.13;4.10;;;17.10;68.90;;;;;;5034443;28;20550;-70
2023/06/13 05:40:53;;;;;;;8.97;4.40;;;17.20;68.90;;;;;;5034191;28;20441;-70
2023/06/13 05:43:21;;;;;;;6.30;3.73;;;17.40;69.10;;;;;;5034233;28;20435;-70
2023/06/13 05:45:49;;;;;;;6.37;3.93;;;17.50;69.20;;;;;;5032811;28;20451;-71
2023/06/13 05:48:17;;;;;;;7.23;3.90;;;17.70;69.90;;;;;;5034374;28;20538;-70
2023/06/13 05:50:46;;;;;;;6.07;3.87;;;17.90;69.30;;;;;;5034000;28;20435;-70
2023/06/13 05:53:15;;;;;;;6.20;3.50;;;18.10;69.30;;;;;;5033867;28;20466;-70
2023/06/13 05:55:44;;;;;;;5.80;3.90;;;18.30;69.20;;;;;;5034078;28;20481;-70
2023/06/13 05:58:12;;;;;;;6.20;3.50;;;18.60;69.20;;;;;;5033655;28;20450;-71
2023/06/13 06:00:41;;;;;;;6.57;3.43;;;18.80;69.00;;;;;;5033974;28;20441;-71
2023/06/13 06:03:09;;;;;;;7.73;3.60;;;19.00;69.00;;;;;;5034348;28;20489;-71
2023/06/13 06:05:37;;;;;;;6.57;3.20;;;19.30;69.10;;;;;;5033864;28;20504;-71
2023/06/13 06:08:06;;;;;;;5.90;3.30;;;19.50;68.90;;;;;;5034051;28;20566;-71
2023/06/13 06:10:35;;;;;;;6.73;3.60;;;19.70;68.70;;;;;;5034010;28;20936;-71
2023/06/13 06:13:03;;;;;;;5.90;3.83;;;19.80;68.20;;;;;;5033855;28;20453;-71
2023/06/13 06:15:34;;;;;;;8.73;3.43;;;19.90;68.00;;;;;;5032287;28;20453;-71
2023/06/13 06:18:03;;;;;;;4.93;3.23;;;20.00;68.10;;;;;;5032317;28;20979;-72
2023/06/13 06:20:31;;;;;;;5.93;3.40;;;20.20;68.10;;;;;;5033874;28;20467;-71
2023/06/13 06:22:59;;;;;;;5.43;3.20;;;20.30;68.00;;;;;;5033947;28;20466;-71
2023/06/13 06:25:27;;;;;;;6.80;3.63;;;20.50;67.80;;;;;;5034269;28;20488;-71
2023/06/13 06:27:57;;;;;;;6.93;3.03;;;20.60;67.70;;;;;;5033515;28;20573;-72
2023/06/13 06:30:25;;;;;;;10.27;3.30;;;20.60;68.30;;;;;;5033659;28;20442;-71
2023/06/13 06:32:58;;;;;;;5.63;3.37;;;20.70;67.80;;;;;;5033899;28;20419;-71
2023/06/13 06:35:26;;;;;;;6.93;3.37;;;20.90;68.00;;;;;;5033945;28;20533;-71
2023/06/13 06:37:54;;;;;;;7.77;3.70;;;21.10;68.10;;;;;;5033763;28;20550;-71
2023/06/13 06:40:22;;;;;;;8.53;3.17;;;21.20;67.80;;;;;;5034240;28;20439;-71
2023/06/13 06:42:51;;;;;;;5.77;3.67;;;21.40;67.60;;;;;;5033689;28;20443;-71
2023/06/13 06:45:28;;;;;;;4.53;2.97;;;21.40;67.50;;;;;;5034005;28;20518;-72
2023/06/13 06:47:56;;;;;;;7.77;3.20;;;21.60;67.40;;;;;;5035464;28;20541;-71
2023/06/13 06:50:25;;;;;;;7.10;3.37;;;21.70;68.20;;;;;;5036029;28;20534;-71
2023/06/13 06:52:53;;;;;;;6.80;3.50;;;21.90;67.50;;;;;;5035108;28;20474;-71
2023/06/13 06:55:21;;;;;;;6.90;3.30;;;22.00;67.40;;;;;;5036098;28;20439;-71
2023/06/13 06:57:53;;;;;;;6.50;2.90;;;22.10;67.20;;;;;;5034031;28;20465;-71
2023/06/13 07:00:23;;;;;;;6.67;3.47;;;22.20;67.00;;;;;;5035405;28;20885;-71
2023/06/13 07:02:54;;;;;;;7.73;3.13;;;22.30;66.90;;;;;;5034438;28;20494;-71
2023/06/13 07:05:23;;;;;;;5.60;2.90;;;22.30;66.80;;;;;;5032590;28;20450;-72
2023/06/13 07:07:51;;;;;;;6.63;4.00;;;22.30;67.00;;;;;;5033425;28;20835;-72
2023/06/13 07:10:19;;;;;;;6.50;3.33;;;22.40;67.10;;;;;;5033622;28;20430;-71
2023/06/13 07:12:47;;;;;;;6.70;3.43;;;22.50;67.10;;;;;;5034005;28;20465;-72
2023/06/13 07:15:16;;;;;;;6.13;3.10;;;22.60;67.00;;;;;;5033902;28;20435;-72
2023/06/13 07:17:44;;;;;;;6.13;3.23;;;22.70;66.90;;;;;;5033366;28;20964;-71
2023/06/13 07:20:13;;;;;;;6.10;3.40;;;22.80;66.80;;;;;;5033191;28;20441;-72
2023/06/13 07:22:42;;;;;;;6.13;3.50;;;22.90;66.90;;;;;;5033237;28;20445;-72
2023/06/13 07:25:11;;;;;;;6.30;4.07;;;23.00;66.90;;;;;;5033497;28;20460;-72
2023/06/13 07:27:39;;;;;;;6.73;3.90;;;23.00;66.90;;;;;;5031538;28;20542;-72
2023/06/13 07:30:08;;;;;;;5.63;3.00;;;23.10;66.80;;;;;;5033111;28;20536;-71
2023/06/13 07:32:36;;;;;;;6.07;3.10;;;23.10;66.70;;;;;;5032938;28;20500;-71
2023/06/13 07:35:05;;;;;;;6.23;3.07;;;23.20;66.70;;;;;;5032931;28;20438;-72
2023/06/13 07:37:36;;;;;;;5.77;2.70;;;23.30;66.80;;;;;;5031861;28;20491;-71
2023/06/13 07:40:07;;;;;;;7.23;2.97;;;23.30;66.70;;;;;;5033473;28;20416;-72
2023/06/13 07:42:36;;;;;;;7.03;3.53;;;23.40;66.70;;;;;;5033017;28;20411;-71
2023/06/13 07:45:05;;;;;;;7.73;3.60;;;23.50;66.70;;;;;;5031678;28;20510;-72
2023/06/13 07:47:33;;;;;;;7.93;3.47;;;23.50;66.30;;;;;;5035948;28;20539;-72
2023/06/13 07:50:01;;;;;;;5.83;2.87;;;23.50;66.00;;;;;;5036765;28;20470;-72
2023/06/13 07:52:30;;;;;;;12.97;3.73;;;23.50;66.00;;;;;;5036892;28;20923;-71
2023/06/13 07:54:59;;;;;;;5.80;3.40;;;23.50;66.20;;;;;;5036446;28;20932;-72
2023/06/13 07:57:27;;;;;;;6.20;3.17;;;23.60;66.40;;;;;;5037030;28;20450;-71
2023/06/13 08:00:17;;;;;;;7.00;3.60;;;23.60;66.10;;;;;;5036682;28;20427;-72
2023/06/13 08:02:46;;;;;;;5.70;2.67;;;23.70;66.00;;;;;;5037046;28;20525;-72
2023/06/13 08:05:15;;;;;;;5.73;3.43;;;23.80;66.70;;;;;;5035141;28;20482;-72
2023/06/13 08:07:43;;;;;;;7.97;2.90;;;23.80;66.10;;;;;;5036516;28;20486;-72
2023/06/13 08:10:13;;;;;;;5.37;3.20;;;23.90;66.10;;;;;;5036944;28;20467;-72
2023/06/13 08:12:42;;;;;;;7.73;4.17;;;23.90;66.00;;;;;;5035135;28;20443;-72
2023/06/13 08:15:11;;;;;;;5.70;3.43;;;24.00;66.10;;;;;;5035563;28;20474;-72
2023/06/13 08:17:41;;;;;;;5.83;3.70;;;24.00;66.00;;;;;;5034606;28;20471;-74
2023/06/13 08:20:11;;;;;;;5.63;3.40;;;24.00;65.90;;;;;;5036031;28;20419;-72
2023/06/13 08:22:40;;;;;;;7.60;3.30;;;24.00;65.80;;;;;;5036022;28;20530;-72
2023/06/13 08:25:09;;;;;;;6.53;2.90;;;24.00;65.70;;;;;;5035990;28;20443;-72
2023/06/13 08:27:39;;;;;;;5.57;2.90;;;24.10;65.80;;;;;;5035745;28;20505;-72
2023/06/13 08:30:08;;;;;;;11.33;3.17;;;24.10;65.80;;;;;;5035894;28;20484;-72
2023/06/13 08:32:38;;;;;;;5.90;2.80;;;24.20;65.80;;;;;;5034511;28;20450;-72
2023/06/13 08:35:07;;;;;;;6.27;3.30;;;24.30;65.90;;;;;;5034691;28;20474;-72
2023/06/13 08:37:35;;;;;;;4.77;2.97;;;24.30;65.90;;;;;;5035829;28;20553;-73
2023/06/13 08:40:05;;;;;;;6.93;3.27;;;24.40;65.80;;;;;;5035687;28;20439;-72
2023/06/13 08:42:34;;;;;;;9.47;3.40;;;24.50;65.20;;;;;;5035824;28;20896;-72
2023/06/13 08:45:04;;;;;;;6.20;3.40;;;24.50;64.90;;;;;;5035366;28;20929;-72
2023/06/13 08:47:32;;;;;;;7.30;3.20;;;24.50;64.60;;;;;;5035457;28;20979;-72
2023/06/13 08:50:07;;;;;;;8.00;3.27;;;24.50;64.50;;;;;;5035721;28;20455;-72
2023/06/13 08:52:40;;;;;;;7.40;3.37;;;24.50;64.80;;;;;;5035257;28;20439;-71
2023/06/13 08:55:12;;;;;;;8.60;3.70;;;24.60;65.00;;;;;;5035233;28;20446;-72
2023/06/13 08:58:03;;;;;;;6.73;3.30;;;24.60;64.90;;;;;;5034132;28;20474;-73
2023/06/13 09:00:35;;;;;;;7.53;3.40;;;24.60;64.90;;;;;;5036561;28;20453;-72
2023/06/13 09:03:05;;;;;;;6.97;3.60;;;24.60;64.70;;;;;;5035062;28;20427;-72
2023/06/13 09:05:33;;;;;;;5.90;3.03;;;24.60;64.10;;;;;;5036007;28;20497;-71
2023/06/13 09:08:03;;;;;;;5.43;3.40;;;24.70;63.80;;;;;;5035744;28;20450;-71
2023/06/13 09:10:52;;;;;;;7.10;3.70;;;24.70;63.60;;;;;;5036150;28;20462;-72
2023/06/13 09:13:22;;;;;;;5.30;3.50;;;24.70;63.60;;;;;;5036337;28;20485;-71
2023/06/13 09:15:52;;;;;;;6.67;3.67;;;24.80;63.70;;;;;;5036156;28;20526;-71
2023/06/13 09:18:21;;;;;;;13.10;4.07;;;24.90;63.60;;;;;;5035766;28;20463;-72
2023/06/13 09:20:49;;;;;;;6.30;3.30;;;24.90;63.90;;;;;;5036398;28;20444;-72
2023/06/13 09:23:18;;;;;;;5.80;3.67;;;25.00;63.90;;;;;;5035919;28;20439;-72
2023/06/13 09:25:47;;;;;;;5.37;3.83;;;25.00;64.00;;;;;;5035755;28;20451;-72
2023/06/13 09:28:31;;;;;;;7.73;3.80;;;25.10;63.80;;;;;;5035628;28;20481;-71
2023/06/13 09:31:01;;;;;;;6.30;3.87;;;25.10;63.40;;;;;;5035154;28;20489;-72
2023/06/13 09:33:29;;;;;;;7.13;3.50;;;25.10;64.40;;;;;;5035565;28;20446;-71
2023/06/13 09:35:57;;;;;;;7.93;3.80;;;25.20;63.70;;;;;;5035476;28;20859;-71
2023/06/13 09:38:46;;;;;;;6.93;3.30;;;25.30;63.40;;;;;;5035627;28;20466;-71
2023/06/13 09:41:14;;;;;;;14.60;3.97;;;25.30;62.70;;;;;;5035549;28;20505;-71
2023/06/13 09:43:43;;;;;;;6.13;3.73;;;25.40;62.00;;;;;;5035439;28;20536;-71
2023/06/13 09:46:13;;;;;;;5.67;3.60;;;25.40;61.20;;;;;;5035533;28;20493;-71
2023/06/13 09:48:45;;;;;;;7.00;4.27;;;25.50;60.70;;;;;;5034038;28;20902;-71
2023/06/13 09:51:13;;;;;;;6.33;3.73;;;25.50;60.10;;;;;;5035177;28;20509;-72
2023/06/13 09:53:45;;;;;;;7.43;3.93;;;25.50;59.90;;;;;;5035185;28;20939;-71
2023/06/13 09:56:13;;;;;;;6.20;3.80;;;25.60;59.20;;;;;;5034037;28;20446;-71
2023/06/13 09:58:42;;;;;;;7.83;3.80;;;25.60;58.90;;;;;;5035036;28;20459;-71
2023/06/13 10:01:15;;;;;;;6.27;3.37;;;25.60;58.70;;;;;;5035436;28;20442;-71
2023/06/13 10:03:43;;;;;;;6.50;3.87;;;25.60;58.50;;;;;;5032911;28;20445;-71
2023/06/13 10:06:13;;;;;;;6.53;3.87;;;25.60;58.20;;;;;;5033980;28;20805;-71
2023/06/13 10:08:41;;;;;;;5.60;3.87;;;25.60;58.10;;;;;;5033321;28;20498;-71
2023/06/13 10:11:14;;;;;;;5.70;3.50;;;25.60;57.90;;;;;;5033777;28;20574;-71
2023/06/13 10:13:49;;;;;;;7.67;4.03;;;25.60;57.80;;;;;;5033918;28;20452;-71
2023/06/13 10:16:22;;;;;;;8.43;4.33;;;25.60;58.20;;;;;;5032451;28;20447;-71
2023/06/13 10:18:54;;;;;;;7.00;3.90;;;25.60;58.20;;;;;;5033694;28;20520;-72
2023/06/13 10:21:22;;;;;;;5.50;3.57;;;25.70;57.10;;;;;;5033702;28;20423;-71
2023/06/13 10:23:51;;;;;;;9.67;3.77;;;25.70;57.10;;;;;;5033582;28;20431;-72
2023/06/13 10:26:28;;;;;;;7.13;3.87;;;25.80;57.20;;;;;;5033938;28;20449;-72
2023/06/13 10:29:19;;;;;;;6.77;3.97;;;25.80;57.70;;;;;;5033806;28;21002;-72
2023/06/13 10:31:57;;;;;;;5.00;3.30;;;25.90;57.00;;;;;;5033477;28;20471;-71
2023/06/13 10:34:48;;;;;;;8.00;3.77;;;25.90;57.00;;;;;;5033804;28;20430;-71
2023/06/13 10:37:39;;;;;;;6.13;3.87;;;25.90;56.90;;;;;;5033193;28;21018;-72
2023/06/13 10:40:45;;;;;;;5.67;4.00;;;25.90;56.90;;;;;;5033500;28;20475;-72
2023/06/13 10:43:19;;;;;;;5.00;3.10;;;25.90;57.20;;;;;;4998909;28;20482;-71
2023/06/13 10:45:50;;;;;;;5.47;3.60;;;25.90;57.30;;;;;;5035449;28;20423;-72
2023/06/13 10:48:32;;;;;;;5.27;3.63;;;26.00;57.50;;;;;;5038831;28;20462;-73
2023/06/13 10:51:00;;;;;;;9.17;3.97;;;26.00;57.30;;;;;;5036970;28;20458;-73
2023/06/13 10:53:28;;;;;;;7.47;3.97;;;26.10;57.60;;;;;;5034643;28;20530;-73
2023/06/13 10:56:02;;;;;;;6.27;3.77;;;26.10;57.40;;;;;;5035195;28;20451;-73
2023/06/13 10:58:31;;;;;;;5.10;3.60;;;26.20;57.10;;;;;;5034657;28;20489;-73
2023/06/13 11:01:30;;;;;;;7.40;3.57;;;26.20;57.10;;;;;;5034889;28;20434;-73
2023/06/13 11:04:11;;;;;;;5.60;4.00;;;26.30;57.00;;;;;;5034472;28;20477;-72
2023/06/13 11:06:41;;;;;;;5.93;3.83;;;26.30;56.80;;;;;;5032419;28;20478;-72
2023/06/13 11:09:17;;;;;;;6.87;4.10;;;26.30;56.50;;;;;;5033441;28;20478;-72
2023/06/13 11:11:47;;;;;;;6.77;4.00;;;26.30;56.20;;;;;;5033851;28;20470;-72
2023/06/13 11:14:16;;;;;;;7.63;4.07;;;26.30;56.30;;;;;;5033221;28;20468;-72
2023/06/13 11:16:45;;;;;;;6.20;4.03;;;26.20;56.50;;;;;;5033480;28;20573;-73
2023/06/13 11:19:17;;;;;;;7.30;3.90;;;26.20;56.70;;;;;;5033430;28;20850;-72
2023/06/13 11:21:46;;;;;;;8.43;3.67;;;26.30;56.70;;;;;;5035373;28;20940;-73
2023/06/13 11:24:15;;;;;;;5.37;3.50;;;26.30;56.40;;;;;;5036936;28;20431;-72
2023/06/13 11:26:47;;;;;;;6.30;3.60;;;26.30;56.50;;;;;;5037044;28;20419;-72
2023/06/13 11:29:16;;;;;;;9.07;4.20;;;26.40;56.70;;;;;;5036507;28;20497;-73
2023/06/13 11:31:44;;;;;;;8.40;3.90;;;26.40;56.50;;;;;;5037084;28;20808;-72
2023/06/13 11:34:18;;;;;;;5.97;3.97;;;26.50;56.50;;;;;;5037013;28;20897;-73
2023/06/13 11:36:47;;;;;;;6.17;4.10;;;26.50;56.30;;;;;;5036746;28;20777;-72
2023/06/13 11:39:24;;;;;;;6.67;4.00;;;26.50;57.00;;;;;;5036575;28;20478;-73
2023/06/13 11:41:52;;;;;;;7.30;3.97;;;26.60;56.10;;;;;;5036628;28;20414;-72
2023/06/13 11:44:20;;;;;;;7.83;4.17;;;26.60;56.00;;;;;;5036689;28;20442;-72
2023/06/13 11:46:49;;;;;;;7.80;5.00;;;26.60;55.80;;;;;;5036159;28;21008;-72
2023/06/13 11:49:18;;;;;;;6.57;4.50;;;26.50;55.50;;;;;;5036393;28;20436;-72
2023/06/13 11:51:46;;;;;;;5.17;3.83;;;26.50;55.30;;;;;;5036564;28;20474;-72
2023/06/13 11:54:15;;;;;;;6.23;4.63;;;26.50;55.30;;;;;;5036220;28;20441;-72
2023/06/13 11:56:52;;;;;;;8.30;4.70;;;26.50;55.20;;;;;;5036401;28;20962;-72
2023/06/13 11:59:22;;;;;;;5.70;4.20;;;26.50;55.00;;;;;;5036669;28;20421;-72
2023/06/13 12:01:52;;;;;;;6.77;4.10;;;26.50;55.10;;;;;;5036269;28;20431;-72
2023/06/13 12:04:23;;;;;;;5.53;3.60;;;26.50;55.10;;;;;;5035962;28;20416;-72
2023/06/13 12:06:53;;;;;;;9.30;4.30;;;26.50;55.00;;;;;;5036032;28;20459;-72
2023/06/13 12:09:21;;;;;;;9.83;4.63;;;26.60;54.90;;;;;;5036236;28;20473;-72
2023/06/13 12:11:51;;;;;;;8.67;4.80;;;26.60;54.60;;;;;;5036116;28;21046;-72
2023/06/13 12:14:20;;;;;;;6.40;4.10;;;26.60;54.30;;;;;;5036242;28;20422;-72
2023/06/13 12:16:53;;;;;;;8.60;4.20;;;26.60;54.10;;;;;;5035620;28;20801;-72
2023/06/13 12:19:24;;;;;;;5.87;4.30;;;26.60;54.10;;;;;;5035821;28;20442;-72
2023/06/13 12:21:59;;;;;;;8.60;5.10;;;26.60;53.90;;;;;;5036024;28;20430;-72
2023/06/13 12:24:28;;;;;;;7.93;4.73;;;26.60;53.70;;;;;;5035834;28;20459;-72
2023/06/13 12:26:56;;;;;;;5.80;4.50;;;26.60;53.70;;;;;;5035563;28;20466;-72
2023/06/13 12:29:27;;;;;;;7.33;4.40;;;26.60;53.50;;;;;;5035602;28;20848;-72
2023/06/13 12:32:02;;;;;;;5.80;3.87;;;26.60;53.40;;;;;;5035684;28;20459;-72
2023/06/13 12:34:34;;;;;;;7.30;4.20;;;26.70;53.90;;;;;;5035688;28;20480;-72
2023/06/13 12:37:05;;;;;;;9.13;4.40;;;26.70;53.80;;;;;;5035820;28;20455;-72
2023/06/13 12:39:34;;;;;;;9.03;4.30;;;26.70;53.70;;;;;;5035528;28;20429;-72
2023/06/13 12:42:04;;;;;;;5.30;3.80;;;26.70;53.60;;;;;;5035269;28;20508;-72
2023/06/13 12:44:35;;;;;;;6.37;4.53;;;26.70;53.60;;;;;;5033903;28;20471;-72
2023/06/13 12:47:05;;;;;;;6.60;4.90;;;26.70;53.40;;;;;;5035424;28;20811;-72
2023/06/13 12:49:39;;;;;;;7.40;4.70;;;26.70;53.40;;;;;;5033919;28;20454;-72
2023/06/13 12:52:16;;;;;;;6.63;4.27;;;26.70;53.10;;;;;;5035388;28;20454;-72
2023/06/13 12:54:44;;;;;;;7.20;4.60;;;26.80;53.10;;;;;;5035305;28;20783;-72
2023/06/13 12:57:16;;;;;;;6.37;4.20;;;26.80;52.80;;;;;;5035068;28;20542;-72
2023/06/13 12:59:52;;;;;;;5.70;4.30;;;26.80;52.80;;;;;;5035372;28;20907;-72
2023/06/13 13:02:23;;;;;;;7.37;4.17;;;26.80;52.90;;;;;;5033793;28;20466;-72